Basin City, Washington
Current Conditions -  °F | °C
As of 8:02 PM on Thursday 18 Dec 2014 (Local Time) from KPSC Reporting Station
Light Rain Light Rain  
Wind Chill: 33°   Ceiling: 5500
Heat Index: 38°   Visibility: 6mi
Dew Point: 38°   Wind: 6mph
Humidity: 100%   Direction: 340°NNW
Pressure: 29.95"   Gusts: NA
Location:  46.5851°N, 119.156°W
Report Text: KPSC 190402Z 34005KT 6SM -RA HZ SCT012 BKN055 OVC080 03/03 A2995 RMK AO2 P0001 T00330033
Loading
Personal Weather Stations






























Interactive Weather Map New forecast layout! Learn more

10-Day Weather Forecast

Advertisements
Track Severe Weather on mobile